sensor_id;sensor_type;location;lat;lon;timestamp;pressure;altitude;pressure_sealevel;temperature;humidity
12221;BME280;6173;42.024;23.096;2022-08-01T00:02:05;96520.50;;;20.14;96.21
12221;BME280;6173;42.024;23.096;2022-08-01T00:04:32;96533.50;;;20.12;94.75
12221;BME280;6173;42.024;23.096;2022-08-01T00:06:59;96533.34;;;20.05;94.00
12221;BME280;6173;42.024;23.096;2022-08-01T00:09:25;96531.84;;;20.08;96.43
12221;BME280;6173;42.024;23.096;2022-08-01T00:11:52;96534.28;;;19.97;96.03
12221;BME280;6173;42.024;23.096;2022-08-01T00:14:20;96509.53;;;19.72;95.70
12221;BME280;6173;42.024;23.096;2022-08-01T00:16:47;96531.28;;;19.83;96.51
12221;BME280;6173;42.024;23.096;2022-08-01T00:19:14;96527.47;;;19.68;96.83
12221;BME280;6173;42.024;23.096;2022-08-01T00:21:41;96541.00;;;19.72;97.71
12221;BME280;6173;42.024;23.096;2022-08-01T00:24:07;96541.25;;;19.67;100.00
12221;BME280;6173;42.024;23.096;2022-08-01T00:26:34;96537.56;;;19.59;100.00
12221;BME280;6173;42.024;23.096;2022-08-01T00:29:01;96538.63;;;19.54;100.00
12221;BME280;6173;42.024;23.096;2022-08-01T00:31:29;96540.78;;;19.49;100.00
12221;BME280;6173;42.024;23.096;2022-08-01T00:33:56;96529.78;;;19.38;100.00
12221;BME280;6173;42.024;23.096;2022-08-01T00:36:23;96526.03;;;19.27;100.00
12221;BME280;6173;42.024;23.096;2022-08-01T00:38:49;96535.47;;;19.21;100.00
12221;BME280;6173;42.024;23.096;2022-08-01T00:41:16;96526.19;;;19.18;100.00
12221;BME280;6173;42.024;23.096;2022-08-01T00:43:43;96552.41;;;19.09;100.00
12221;BME280;6173;42.024;23.096;2022-08-01T00:46:10;96533.44;;;19.02;100.00
12221;BME280;6173;42.024;23.096;2022-08-01T00:48:38;96538.03;;;19.01;100.00
12221;BME280;6173;42.024;23.096;2022-08-01T00:51:05;96536.81;;;18.99;100.00
12221;BME280;6173;42.024;23.096;2022-08-01T00:53:32;96537.56;;;18.99;100.00
12221;BME280;6173;42.024;23.096;2022-08-01T00:55:59;96548.91;;;18.93;100.00
12221;BME280;6173;42.024;23.096;2022-08-01T00:58:26;96531.03;;;18.84;100.00
12221;BME280;6173;42.024;23.096;2022-08-01T01:00:58;96547.53;;;18.71;100.00
12221;BME280;6173;42.024;23.096;2022-08-01T01:03:26;96540.13;;;18.68;100.00
12221;BME280;6173;42.024;23.096;2022-08-01T01:06:05;96540.84;;;18.52;100.00
12221;BME280;6173;42.024;23.096;2022-08-01T01:08:39;96536.84;;;18.46;100.00
12221;BME280;6173;42.024;23.096;2022-08-01T01:11:13;96538.41;;;18.47;100.00
12221;BME280;6173;42.024;23.096;2022-08-01T01:13:47;96541.63;;;18.53;100.00
12221;BME280;6173;42.024;23.096;2022-08-01T01:16:18;96520.41;;;18.48;100.00
12221;BME280;6173;42.024;23.096;2022-08-01T01:18:47;96542.63;;;18.60;100.00
12221;BME280;6173;42.024;23.096;2022-08-01T01:21:35;96533.59;;;18.53;100.00
12221;BME280;6173;42.024;23.096;2022-08-01T01:24:14;96545.44;;;18.52;100.00
12221;BME280;6173;42.024;23.096;2022-08-01T01:26:49;96523.03;;;18.32;100.00
12221;BME280;6173;42.024;23.096;2022-08-01T01:29:21;96540.44;;;18.38;100.00
12221;BME280;6173;42.024;23.096;2022-08-01T01:31:52;96524.38;;;18.26;100.00
12221;BME280;6173;42.024;23.096;2022-08-01T01:34:23;96536.09;;;18.33;100.00
12221;BME280;6173;42.024;23.096;2022-08-01T01:36:52;96540.25;;;18.31;100.00
12221;BME280;6173;42.024;23.096;2022-08-01T01:39:21;96536.31;;;18.28;100.00
12221;BME280;6173;42.024;23.096;2022-08-01T01:41:51;96535.78;;;18.23;100.00
12221;BME280;6173;42.024;23.096;2022-08-01T01:44:21;96541.16;;;18.11;100.00
12221;BME280;6173;42.024;23.096;2022-08-01T01:46:50;96540.81;;;18.00;100.00
12221;BME280;6173;42.024;23.096;2022-08-01T01:49:19;96542.06;;;17.90;100.00
12221;BME280;6173;42.024;23.096;2022-08-01T01:51:48;96542.59;;;17.83;100.00
12221;BME280;6173;42.024;23.096;2022-08-01T01:54:17;96550.31;;;17.73;100.00
12221;BME280;6173;42.024;23.096;2022-08-01T01:56:45;96524.16;;;17.57;100.00
12221;BME280;6173;42.024;23.096;2022-08-01T01:59:19;96539.59;;;17.73;100.00
12221;BME280;6173;42.024;23.096;2022-08-01T02:01:49;96539.66;;;17.64;100.00
12221;BME280;6173;42.024;23.096;2022-08-01T02:04:18;96531.75;;;17.55;100.00
12221;BME280;6173;42.024;23.096;2022-08-01T02:06:46;96539.78;;;17.55;100.00
12221;BME280;6173;42.024;23.096;2022-08-01T02:09:16;96530.81;;;17.39;100.00
12221;BME280;6173;42.024;23.096;2022-08-01T02:11:46;96521.00;;;17.31;100.00
12221;BME280;6173;42.024;23.096;2022-08-01T02:14:15;96548.22;;;17.45;100.00
12221;BME280;6173;42.024;23.096;2022-08-01T02:16:46;96547.56;;;17.48;100.00
12221;BME280;6173;42.024;23.096;2022-08-01T02:19:17;96557.38;;;17.44;100.00
12221;BME280;6173;42.024;23.096;2022-08-01T02:21:48;96531.13;;;17.25;100.00
12221;BME280;6173;42.024;23.096;2022-08-01T02:24:20;96541.44;;;17.36;100.00
12221;BME280;6173;42.024;23.096;2022-08-01T02:26:52;96538.41;;;17.37;100.00
12221;BME280;6173;42.024;23.096;2022-08-01T02:29:24;96534.97;;;17.37;100.00
12221;BME280;6173;42.024;23.096;2022-08-01T02:31:54;96529.34;;;17.29;100.00
12221;BME280;6173;42.024;23.096;2022-08-01T02:34:25;96525.25;;;17.32;100.00
12221;BME280;6173;42.024;23.096;2022-08-01T02:36:58;96533.28;;;17.44;100.00
12221;BME280;6173;42.024;23.096;2022-08-01T02:39:28;96537.06;;;17.43;100.00
12221;BME280;6173;42.024;23.096;2022-08-01T02:41:58;96539.53;;;17.36;100.00
12221;BME280;6173;42.024;23.096;2022-08-01T02:44:30;96540.84;;;17.30;100.00
12221;BME280;6173;42.024;23.096;2022-08-01T02:47:00;96539.69;;;17.19;100.00
12221;BME280;6173;42.024;23.096;2022-08-01T02:49:31;96539.22;;;17.04;100.00
12221;BME280;6173;42.024;23.096;2022-08-01T02:51:59;96533.69;;;16.89;100.00
12221;BME280;6173;42.024;23.096;2022-08-01T02:54:29;96541.06;;;16.92;100.00
12221;BME280;6173;42.024;23.096;2022-08-01T02:56:57;96541.19;;;16.95;100.00
12221;BME280;6173;42.024;23.096;2022-08-01T02:59:26;96545.50;;;16.88;100.00
12221;BME280;6173;42.024;23.096;2022-08-01T03:01:55;96545.00;;;16.73;100.00
12221;BME280;6173;42.024;23.096;2022-08-01T03:04:23;96538.47;;;16.62;100.00
12221;BME280;6173;42.024;23.096;2022-08-01T03:06:54;96527.69;;;16.50;100.00
12221;BME280;6173;42.024;23.096;2022-08-01T03:09:25;96544.13;;;16.61;100.00
12221;BME280;6173;42.024;23.096;2022-08-01T03:11:57;96531.69;;;16.44;100.00
12221;BME280;6173;42.024;23.096;2022-08-01T03:14:25;96542.81;;;16.46;100.00
12221;BME280;6173;42.024;23.096;2022-08-01T03:16:54;96538.97;;;16.55;100.00
12221;BME280;6173;42.024;23.096;2022-08-01T03:19:22;96541.97;;;16.54;100.00
12221;BME280;6173;42.024;23.096;2022-08-01T03:21:53;96553.06;;;16.65;100.00
12221;BME280;6173;42.024;23.096;2022-08-01T03:24:25;96548.09;;;16.54;100.00
12221;BME280;6173;42.024;23.096;2022-08-01T03:26:53;96546.69;;;16.57;100.00
12221;BME280;6173;42.024;23.096;2022-08-01T03:29:25;96550.72;;;16.63;100.00
12221;BME280;6173;42.024;23.096;2022-08-01T03:31:53;96553.84;;;16.44;100.00
12221;BME280;6173;42.024;23.096;2022-08-01T03:34:20;96559.38;;;16.39;100.00
12221;BME280;6173;42.024;23.096;2022-08-01T03:36:56;96558.59;;;16.39;100.00
12221;BME280;6173;42.024;23.096;2022-08-01T03:39:31;96566.81;;;16.54;100.00
12221;BME280;6173;42.024;23.096;2022-08-01T03:42:06;96563.84;;;16.56;100.00
12221;BME280;6173;42.024;23.096;2022-08-01T03:44:35;96561.91;;;16.36;100.00
12221;BME280;6173;42.024;23.096;2022-08-01T03:47:06;96561.03;;;16.32;100.00
12221;BME280;6173;42.024;23.096;2022-08-01T03:49:38;96564.28;;;16.37;100.00
12221;BME280;6173;42.024;23.096;2022-08-01T03:52:07;96558.00;;;16.33;100.00
12221;BME280;6173;42.024;23.096;2022-08-01T03:54:40;96559.81;;;16.20;100.00
12221;BME280;6173;42.024;23.096;2022-08-01T03:57:08;96561.06;;;16.23;100.00
12221;BME280;6173;42.024;23.096;2022-08-01T03:59:37;96565.50;;;16.40;100.00
12221;BME280;6173;42.024;23.096;2022-08-01T04:02:04;96544.66;;;16.33;100.00
12221;BME280;6173;42.024;23.096;2022-08-01T04:04:33;96565.72;;;16.55;100.00
12221;BME280;6173;42.024;23.096;2022-08-01T04:07:00;96561.75;;;16.62;100.00
12221;BME280;6173;42.024;23.096;2022-08-01T04:09:30;96562.06;;;16.60;100.00
12221;BME280;6173;42.024;23.096;2022-08-01T04:12:04;96564.06;;;16.72;100.00
12221;BME280;6173;42.024;23.096;2022-08-01T04:14:31;96560.06;;;16.78;100.00
12221;BME280;6173;42.024;23.096;2022-08-01T04:16:58;96568.59;;;16.92;100.00
12221;BME280;6173;42.024;23.096;2022-08-01T04:19:25;96575.25;;;17.07;100.00
12221;BME280;6173;42.024;23.096;2022-08-01T04:21:51;96571.53;;;16.99;100.00
12221;BME280;6173;42.024;23.096;2022-08-01T04:24:19;96558.09;;;16.87;100.00
12221;BME280;6173;42.024;23.096;2022-08-01T04:26:50;96577.25;;;17.10;100.00
12221;BME280;6173;42.024;23.096;2022-08-01T04:29:20;96578.31;;;16.97;100.00
12221;BME280;6173;42.024;23.096;2022-08-01T04:31:49;96578.91;;;17.02;100.00
12221;BME280;6173;42.024;23.096;2022-08-01T04:34:20;96586.25;;;17.05;100.00
12221;BME280;6173;42.024;23.096;2022-08-01T04:36:48;96571.53;;;16.99;100.00
12221;BME280;6173;42.024;23.096;2022-08-01T04:39:17;96586.44;;;17.21;100.00
12221;BME280;6173;42.024;23.096;2022-08-01T04:41:46;96580.09;;;17.26;100.00
12221;BME280;6173;42.024;23.096;2022-08-01T04:44:13;96593.06;;;17.36;100.00
12221;BME280;6173;42.024;23.096;2022-08-01T04:46:43;96565.44;;;17.11;100.00
12221;BME280;6173;42.024;23.096;2022-08-01T04:49:11;96593.38;;;17.35;100.00
12221;BME280;6173;42.024;23.096;2022-08-01T04:51:49;96575.19;;;17.28;100.00
12221;BME280;6173;42.024;23.096;2022-08-01T04:54:17;96603.84;;;17.61;100.00
12221;BME280;6173;42.024;23.096;2022-08-01T04:56:44;96594.34;;;17.63;100.00
12221;BME280;6173;42.024;23.096;2022-08-01T04:59:11;96597.09;;;17.75;100.00
12221;BME280;6173;42.024;23.096;2022-08-01T05:01:57;96595.84;;;17.73;100.00
12221;BME280;6173;42.024;23.096;2022-08-01T05:04:23;96597.75;;;17.85;100.00
12221;BME280;6173;42.024;23.096;2022-08-01T05:06:50;96592.97;;;17.90;100.00
12221;BME280;6173;42.024;23.096;2022-08-01T05:09:17;96595.88;;;17.97;100.00
12221;BME280;6173;42.024;23.096;2022-08-01T05:11:43;96601.13;;;18.18;100.00
12221;BME280;6173;42.024;23.096;2022-08-01T05:14:10;96602.69;;;18.31;100.00
12221;BME280;6173;42.024;23.096;2022-08-01T05:16:37;96610.28;;;18.42;100.00
12221;BME280;6173;42.024;23.096;2022-08-01T05:19:05;96612.63;;;18.43;100.00
12221;BME280;6173;42.024;23.096;2022-08-01T05:21:33;96590.06;;;18.32;100.00
12221;BME280;6173;42.024;23.096;2022-08-01T05:24:00;96599.66;;;18.45;100.00
12221;BME280;6173;42.024;23.096;2022-08-01T05:26:36;96580.75;;;18.54;100.00
12221;BME280;6173;42.024;23.096;2022-08-01T05:29:09;96531.41;;;18.30;100.00
12221;BME280;6173;42.024;23.096;2022-08-01T05:31:36;96594.06;;;18.75;100.00
12221;BME280;6173;42.024;23.096;2022-08-01T05:34:04;96605.25;;;19.05;100.00
12221;BME280;6173;42.024;23.096;2022-08-01T05:36:31;96605.78;;;19.10;100.00
12221;BME280;6173;42.024;23.096;2022-08-01T05:39:02;96594.88;;;19.19;100.00
12221;BME280;6173;42.024;23.096;2022-08-01T05:41:29;96611.63;;;19.28;99.60
12221;BME280;6173;42.024;23.096;2022-08-01T05:43:56;96606.97;;;19.41;97.98
12221;BME280;6173;42.024;23.096;2022-08-01T05:46:23;96593.09;;;19.39;96.77
12221;BME280;6173;42.024;23.096;2022-08-01T05:48:50;96602.41;;;19.57;95.82
12221;BME280;6173;42.024;23.096;2022-08-01T05:51:18;96605.81;;;19.54;88.45
12221;BME280;6173;42.024;23.096;2022-08-01T05:53:45;96605.25;;;19.49;86.75
12221;BME280;6173;42.024;23.096;2022-08-01T05:56:12;96574.72;;;19.25;88.28
12221;BME280;6173;42.024;23.096;2022-08-01T05:58:39;96590.09;;;19.41;86.73
12221;BME280;6173;42.024;23.096;2022-08-01T06:01:06;96598.44;;;19.51;82.30
12221;BME280;6173;42.024;23.096;2022-08-01T06:03:33;96580.38;;;19.36;83.67
12221;BME280;6173;42.024;23.096;2022-08-01T06:05:59;96593.78;;;19.64;84.19
12221;BME280;6173;42.024;23.096;2022-08-01T06:08:30;96592.06;;;19.72;85.63
12221;BME280;6173;42.024;23.096;2022-08-01T06:10:57;96590.59;;;19.74;82.52
12221;BME280;6173;42.024;23.096;2022-08-01T06:13:24;96587.91;;;19.74;84.63
12221;BME280;6173;42.024;23.096;2022-08-01T06:15:51;96580.00;;;19.81;82.99
12221;BME280;6173;42.024;23.096;2022-08-01T06:18:18;96562.91;;;19.74;84.03
12221;BME280;6173;42.024;23.096;2022-08-01T06:20:45;96588.44;;;19.80;83.53
12221;BME280;6173;42.024;23.096;2022-08-01T06:23:11;96574.91;;;19.76;85.52
12221;BME280;6173;42.024;23.096;2022-08-01T06:25:40;96562.06;;;19.70;84.28
12221;BME280;6173;42.024;23.096;2022-08-01T06:28:06;96564.31;;;19.83;85.78
12221;BME280;6173;42.024;23.096;2022-08-01T06:30:33;96550.53;;;19.85;80.61
12221;BME280;6173;42.024;23.096;2022-08-01T06:33:00;96570.91;;;20.02;80.76
12221;BME280;6173;42.024;23.096;2022-08-01T06:35:28;96566.91;;;20.11;82.54
12221;BME280;6173;42.024;23.096;2022-08-01T06:37:56;96568.34;;;20.25;80.06
12221;BME280;6173;42.024;23.096;2022-08-01T06:40:23;96565.53;;;20.37;78.15
12221;BME280;6173;42.024;23.096;2022-08-01T06:42:51;96558.50;;;20.48;79.32
12221;BME280;6173;42.024;23.096;2022-08-01T06:45:18;96558.47;;;20.64;73.84
12221;BME280;6173;42.024;23.096;2022-08-01T06:47:48;96552.16;;;20.76;70.80
12221;BME280;6173;42.024;23.096;2022-08-01T06:50:14;96556.63;;;20.87;68.82
12221;BME280;6173;42.024;23.096;2022-08-01T06:52:41;96552.88;;;20.92;67.26
12221;BME280;6173;42.024;23.096;2022-08-01T06:55:08;96552.25;;;20.99;67.67
12221;BME280;6173;42.024;23.096;2022-08-01T06:57:35;96549.69;;;21.06;65.67
12221;BME280;6173;42.024;23.096;2022-08-01T07:00:06;96544.84;;;21.15;65.34
12221;BME280;6173;42.024;23.096;2022-08-01T07:02:35;96547.19;;;21.16;65.17
12221;BME280;6173;42.024;23.096;2022-08-01T07:05:02;96544.63;;;21.24;65.82
12221;BME280;6173;42.024;23.096;2022-08-01T07:07:29;96545.19;;;21.33;62.59
12221;BME280;6173;42.024;23.096;2022-08-01T07:09:56;96540.25;;;21.35;62.47
12221;BME280;6173;42.024;23.096;2022-08-01T07:12:23;96534.00;;;21.31;63.06
12221;BME280;6173;42.024;23.096;2022-08-01T07:14:50;96541.19;;;21.46;64.03
12221;BME280;6173;42.024;23.096;2022-08-01T07:17:18;96539.28;;;21.47;63.54
12221;BME280;6173;42.024;23.096;2022-08-01T07:19:45;96545.50;;;21.51;62.99
12221;BME280;6173;42.024;23.096;2022-08-01T07:22:12;96531.84;;;21.63;64.52
12221;BME280;6173;42.024;23.096;2022-08-01T07:24:39;96534.47;;;21.82;62.89
12221;BME280;6173;42.024;23.096;2022-08-01T07:27:07;96533.06;;;21.92;60.36
12221;BME280;6173;42.024;23.096;2022-08-01T07:29:33;96532.31;;;21.91;60.06
12221;BME280;6173;42.024;23.096;2022-08-01T07:32:00;96523.88;;;21.93;61.18
12221;BME280;6173;42.024;23.096;2022-08-01T07:34:28;96509.91;;;21.87;60.83
12221;BME280;6173;42.024;23.096;2022-08-01T07:36:55;96530.38;;;22.15;62.27
12221;BME280;6173;42.024;23.096;2022-08-01T07:39:22;96534.69;;;22.19;61.50
12221;BME280;6173;42.024;23.096;2022-08-01T07:41:49;96539.13;;;22.35;52.72
12221;BME280;6173;42.024;23.096;2022-08-01T07:44:15;96507.13;;;22.33;49.97
12221;BME280;6173;42.024;23.096;2022-08-01T07:46:42;96520.50;;;22.56;49.29
12221;BME280;6173;42.024;23.096;2022-08-01T07:49:09;96528.84;;;22.74;49.32
12221;BME280;6173;42.024;23.096;2022-08-01T07:51:37;96524.34;;;22.85;48.12
12221;BME280;6173;42.024;23.096;2022-08-01T07:54:04;96515.84;;;22.87;48.46
12221;BME280;6173;42.024;23.096;2022-08-01T07:56:31;96523.00;;;23.02;48.31
12221;BME280;6173;42.024;23.096;2022-08-01T07:58:57;96526.63;;;23.13;48.23
12221;BME280;6173;42.024;23.096;2022-08-01T08:01:24;96522.47;;;23.23;48.99
12221;BME280;6173;42.024;23.096;2022-08-01T08:03:52;96513.31;;;23.35;48.34
12221;BME280;6173;42.024;23.096;2022-08-01T08:06:18;96511.81;;;23.37;47.77
12221;BME280;6173;42.024;23.096;2022-08-01T08:08:46;96486.22;;;23.28;48.44
12221;BME280;6173;42.024;23.096;2022-08-01T08:11:13;96500.31;;;23.47;47.80
12221;BME280;6173;42.024;23.096;2022-08-01T08:13:40;96507.31;;;23.52;48.01
12221;BME280;6173;42.024;23.096;2022-08-01T08:16:07;96506.28;;;23.67;46.67
12221;BME280;6173;42.024;23.096;2022-08-01T08:18:33;96510.59;;;23.76;47.06
12221;BME280;6173;42.024;23.096;2022-08-01T08:21:00;96511.78;;;23.82;44.53
12221;BME280;6173;42.024;23.096;2022-08-01T08:23:27;96511.50;;;23.94;44.78
12221;BME280;6173;42.024;23.096;2022-08-01T08:26:12;96493.00;;;24.03;45.56
12221;BME280;6173;42.024;23.096;2022-08-01T08:28:39;96500.72;;;23.97;44.03
12221;BME280;6173;42.024;23.096;2022-08-01T08:31:06;96503.06;;;24.06;43.38
12221;BME280;6173;42.024;23.096;2022-08-01T08:33:33;96504.72;;;24.18;44.15
12221;BME280;6173;42.024;23.096;2022-08-01T08:36:00;96499.81;;;24.38;43.11
12221;BME280;6173;42.024;23.096;2022-08-01T08:38:26;96493.19;;;24.35;42.66
12221;BME280;6173;42.024;23.096;2022-08-01T08:40:53;96503.31;;;24.45;42.64
12221;BME280;6173;42.024;23.096;2022-08-01T08:43:22;96493.69;;;24.48;43.03
12221;BME280;6173;42.024;23.096;2022-08-01T08:45:52;96491.41;;;24.64;43.15
12221;BME280;6173;42.024;23.096;2022-08-01T08:48:19;96501.16;;;24.83;42.86
12221;BME280;6173;42.024;23.096;2022-08-01T08:50:47;96494.22;;;24.93;42.24
12221;BME280;6173;42.024;23.096;2022-08-01T08:53:15;96466.72;;;24.84;41.13
12221;BME280;6173;42.024;23.096;2022-08-01T08:55:43;96493.47;;;25.03;41.38
12221;BME280;6173;42.024;23.096;2022-08-01T08:58:12;96479.91;;;24.96;41.35
12221;BME280;6173;42.024;23.096;2022-08-01T09:00:40;96492.75;;;25.13;42.08
12221;BME280;6173;42.024;23.096;2022-08-01T09:03:07;96475.72;;;25.13;41.42
12221;BME280;6173;42.024;23.096;2022-08-01T09:05:34;96475.25;;;25.00;40.69
12221;BME280;6173;42.024;23.096;2022-08-01T09:08:01;96480.34;;;25.16;40.55
12221;BME280;6173;42.024;23.096;2022-08-01T09:10:28;96483.84;;;25.20;40.96
12221;BME280;6173;42.024;23.096;2022-08-01T09:13:02;96482.31;;;25.22;40.62
12221;BME280;6173;42.024;23.096;2022-08-01T09:15:38;96482.72;;;25.46;40.07
12221;BME280;6173;42.024;23.096;2022-08-01T09:18:06;96477.31;;;25.53;39.87
12221;BME280;6173;42.024;23.096;2022-08-01T09:20:33;96478.47;;;25.66;39.85
12221;BME280;6173;42.024;23.096;2022-08-01T09:23:01;96470.72;;;25.61;40.02
12221;BME280;6173;42.024;23.096;2022-08-01T09:25:29;96474.59;;;25.42;41.10
12221;BME280;6173;42.024;23.096;2022-08-01T09:28:04;96469.91;;;25.61;39.82
12221;BME280;6173;42.024;23.096;2022-08-01T09:30:37;96454.81;;;25.52;39.85
12221;BME280;6173;42.024;23.096;2022-08-01T09:33:06;96462.16;;;26.02;40.09
12221;BME280;6173;42.024;23.096;2022-08-01T09:35:34;96457.44;;;26.20;39.04
12221;BME280;6173;42.024;23.096;2022-08-01T09:38:15;96443.13;;;26.13;39.68
12221;BME280;6173;42.024;23.096;2022-08-01T09:40:50;96459.00;;;26.25;38.75
12221;BME280;6173;42.024;23.096;2022-08-01T09:43:18;96431.47;;;26.26;38.72
12221;BME280;6173;42.024;23.096;2022-08-01T09:45:45;96455.44;;;26.49;38.49
12221;BME280;6173;42.024;23.096;2022-08-01T09:48:13;96448.91;;;26.25;38.27
12221;BME280;6173;42.024;23.096;2022-08-01T09:50:42;96446.13;;;26.50;38.60
12221;BME280;6173;42.024;23.096;2022-08-01T09:53:09;96441.31;;;26.79;38.13
12221;BME280;6173;42.024;23.096;2022-08-01T09:55:37;96443.06;;;27.18;38.34
12221;BME280;6173;42.024;23.096;2022-08-01T09:58:04;96427.78;;;26.76;38.20
12221;BME280;6173;42.024;23.096;2022-08-01T10:00:31;96441.38;;;26.69;38.18
12221;BME280;6173;42.024;23.096;2022-08-01T10:02:58;96432.50;;;26.61;38.71
12221;BME280;6173;42.024;23.096;2022-08-01T10:05:33;96433.63;;;26.67;38.84
12221;BME280;6173;42.024;23.096;2022-08-01T10:08:03;96431.53;;;26.93;38.67
12221;BME280;6173;42.024;23.096;2022-08-01T10:10:30;96426.75;;;27.15;38.59
12221;BME280;6173;42.024;23.096;2022-08-01T10:12:58;96426.63;;;27.36;37.63
12221;BME280;6173;42.024;23.096;2022-08-01T10:15:26;96430.56;;;27.24;37.92
12221;BME280;6173;42.024;23.096;2022-08-01T10:17:55;96420.19;;;27.12;38.73
12221;BME280;6173;42.024;23.096;2022-08-01T10:20:30;96411.94;;;27.26;37.35
12221;BME280;6173;42.024;23.096;2022-08-01T10:23:01;96413.56;;;27.13;38.11
12221;BME280;6173;42.024;23.096;2022-08-01T10:25:34;96421.72;;;27.13;37.95
12221;BME280;6173;42.024;23.096;2022-08-01T10:28:07;96408.56;;;27.08;37.97
12221;BME280;6173;42.024;23.096;2022-08-01T10:30:37;96403.19;;;26.94;37.67
12221;BME280;6173;42.024;23.096;2022-08-01T10:33:04;96405.47;;;26.99;38.07
12221;BME280;6173;42.024;23.096;2022-08-01T10:35:31;96408.53;;;27.15;37.63
12221;BME280;6173;42.024;23.096;2022-08-01T10:37:59;96387.13;;;27.62;37.32
12221;BME280;6173;42.024;23.096;2022-08-01T10:40:27;96401.97;;;27.54;37.26
12221;BME280;6173;42.024;23.096;2022-08-01T10:42:55;96403.78;;;27.71;36.88
12221;BME280;6173;42.024;23.096;2022-08-01T10:45:22;96395.56;;;28.13;36.58
12221;BME280;6173;42.024;23.096;2022-08-01T10:47:55;96394.56;;;28.33;35.73
12221;BME280;6173;42.024;23.096;2022-08-01T10:50:28;96389.91;;;28.30;35.85
12221;BME280;6173;42.024;23.096;2022-08-01T10:53:07;96373.13;;;28.01;36.04
12221;BME280;6173;42.024;23.096;2022-08-01T10:55:45;96399.00;;;29.08;35.75
12221;BME280;6173;42.024;23.096;2022-08-01T10:58:12;96391.16;;;29.61;34.42
12221;BME280;6173;42.024;23.096;2022-08-01T11:00:39;96391.50;;;29.63;34.00
12221;BME280;6173;42.024;23.096;2022-08-01T11:03:06;96388.88;;;29.79;33.30
12221;BME280;6173;42.024;23.096;2022-08-01T11:05:34;96390.03;;;29.08;33.67
12221;BME280;6173;42.024;23.096;2022-08-01T11:08:06;96391.53;;;29.13;34.30
12221;BME280;6173;42.024;23.096;2022-08-01T11:10:37;96361.06;;;28.33;35.18
12221;BME280;6173;42.024;23.096;2022-08-01T11:13:04;96375.91;;;28.28;35.08
12221;BME280;6173;42.024;23.096;2022-08-01T11:15:33;96379.91;;;28.54;35.01
12221;BME280;6173;42.024;23.096;2022-08-01T11:18:02;96358.34;;;28.64;35.07
12221;BME280;6173;42.024;23.096;2022-08-01T11:20:31;96375.84;;;29.20;33.82
12221;BME280;6173;42.024;23.096;2022-08-01T11:23:27;96353.97;;;29.44;33.35
12221;BME280;6173;42.024;23.096;2022-08-01T11:28:44;96352.63;;;29.99;32.44
12221;BME280;6173;42.024;23.096;2022-08-01T11:31:26;96359.03;;;30.28;32.84
12221;BME280;6173;42.024;23.096;2022-08-01T11:33:53;96363.03;;;29.64;33.24
12221;BME280;6173;42.024;23.096;2022-08-01T11:36:20;96355.03;;;29.93;32.34
12221;BME280;6173;42.024;23.096;2022-08-01T11:41:44;96346.06;;;29.73;33.04
12221;BME280;6173;42.024;23.096;2022-08-01T11:44:14;96351.16;;;30.34;32.67
12221;BME280;6173;42.024;23.096;2022-08-01T11:46:49;96347.28;;;30.31;32.50
12221;BME280;6173;42.024;23.096;2022-08-01T11:49:23;96359.38;;;30.50;32.04
12221;BME280;6173;42.024;23.096;2022-08-01T11:51:57;96355.19;;;29.86;32.36
12221;BME280;6173;42.024;23.096;2022-08-01T11:54:26;96347.16;;;29.79;32.56
12221;BME280;6173;42.024;23.096;2022-08-01T11:57:00;96338.03;;;29.42;32.66
12221;BME280;6173;42.024;23.096;2022-08-01T11:59:27;96348.75;;;29.96;33.36
12221;BME280;6173;42.024;23.096;2022-08-01T12:01:54;96338.28;;;30.15;31.59
12221;BME280;6173;42.024;23.096;2022-08-01T12:04:21;96327.19;;;29.82;31.75
12221;BME280;6173;42.024;23.096;2022-08-01T12:06:48;96340.50;;;30.20;32.07
12221;BME280;6173;42.024;23.096;2022-08-01T12:09:16;96338.34;;;30.83;30.54
12221;BME280;6173;42.024;23.096;2022-08-01T12:11:43;96331.91;;;31.84;29.58
12221;BME280;6173;42.024;23.096;2022-08-01T12:14:18;96339.44;;;33.02;28.20
12221;BME280;6173;42.024;23.096;2022-08-01T12:16:50;96339.78;;;33.74;26.91
12221;BME280;6173;42.024;23.096;2022-08-01T12:19:20;96333.81;;;36.74;24.06
12221;BME280;6173;42.024;23.096;2022-08-01T12:22:05;96338.78;;;38.78;21.63
12221;BME280;6173;42.024;23.096;2022-08-01T12:24:32;96328.22;;;38.97;21.54
12221;BME280;6173;42.024;23.096;2022-08-01T12:26:59;96335.06;;;39.78;20.57
12221;BME280;6173;42.024;23.096;2022-08-01T12:29:37;96324.19;;;40.90;20.17
12221;BME280;6173;42.024;23.096;2022-08-01T12:32:20;96318.19;;;41.02;19.43
12221;BME280;6173;42.024;23.096;2022-08-01T12:34:48;96314.81;;;42.79;18.57
12221;BME280;6173;42.024;23.096;2022-08-01T12:37:14;96325.13;;;41.24;18.62
12221;BME280;6173;42.024;23.096;2022-08-01T12:39:43;96320.56;;;39.07;20.57
12221;BME280;6173;42.024;23.096;2022-08-01T12:42:11;96316.16;;;40.60;18.88
12221;BME280;6173;42.024;23.096;2022-08-01T12:44:40;96308.59;;;40.61;18.65
12221;BME280;6173;42.024;23.096;2022-08-01T12:47:08;96274.13;;;40.78;18.47
12221;BME280;6173;42.024;23.096;2022-08-01T12:49:36;96289.63;;;40.96;18.07
12221;BME280;6173;42.024;23.096;2022-08-01T12:52:04;96296.00;;;41.73;18.05
12221;BME280;6173;42.024;23.096;2022-08-01T12:55:06;96298.25;;;41.64;17.89
12221;BME280;6173;42.024;23.096;2022-08-01T12:57:34;96279.88;;;41.18;17.82
12221;BME280;6173;42.024;23.096;2022-08-01T13:00:13;96294.31;;;42.21;17.49
12221;BME280;6173;42.024;23.096;2022-08-01T13:02:41;96282.66;;;42.50;16.61
12221;BME280;6173;42.024;23.096;2022-08-01T13:05:09;96285.88;;;41.65;17.26
12221;BME280;6173;42.024;23.096;2022-08-01T13:07:44;96290.00;;;39.63;19.41
12221;BME280;6173;42.024;23.096;2022-08-01T13:10:12;96282.78;;;41.57;17.15
12221;BME280;6173;42.024;23.096;2022-08-01T13:12:40;96266.31;;;43.22;16.35